Time;durP1;ratioP1;P1;durP2;ratioP2;P2;SDS_P1;SDS_P2;PMS_P1;PMS_P2;Temp;Humidity;BMP_temperature;BMP_pressure;BME280_temperature;BME280_humidity;BME280_pressure;Samples;Min_cycle;Max_cycle;Signal;HPM_P1;HPM_P2
2022/05/09 00:00:20;;;;;;;8.82;4.30;;;6.80;95.90;;;;;;4904929;29;20076;-72
2022/05/09 00:02:48;;;;;;;9.30;3.90;;;6.80;96.20;;;;;;4904566;29;20654;-73
2022/05/09 00:05:16;;;;;;;13.52;3.95;;;6.80;95.90;;;;;;4904971;29;20059;-73
2022/05/09 00:07:43;;;;;;;7.70;3.40;;;6.70;96.00;;;;;;4904157;29;20131;-73
2022/05/09 00:10:10;;;;;;;10.82;3.92;;;6.70;96.30;;;;;;4903702;29;20339;-73
2022/05/09 00:12:36;;;;;;;7.35;3.63;;;6.70;96.30;;;;;;4905397;29;20402;-72
2022/05/09 00:15:03;;;;;;;8.43;3.60;;;6.60;96.20;;;;;;4905107;29;20040;-72
2022/05/09 00:17:29;;;;;;;11.68;4.25;;;6.60;96.20;;;;;;4905723;29;20165;-73
2022/05/09 00:19:54;;;;;;;12.18;4.10;;;6.60;96.00;;;;;;4900918;29;20492;-73
2022/05/09 00:22:20;;;;;;;7.82;3.60;;;6.50;96.20;;;;;;4901301;29;20046;-73
2022/05/09 00:24:45;;;;;;;9.13;3.78;;;6.50;95.70;;;;;;4901960;29;20095;-73
2022/05/09 00:27:11;;;;;;;8.38;3.95;;;6.40;95.70;;;;;;4903664;29;20076;-73
2022/05/09 00:29:37;;;;;;;9.30;3.60;;;6.30;95.70;;;;;;4904474;29;20036;-73
2022/05/09 00:32:03;;;;;;;11.80;4.78;;;6.30;95.70;;;;;;4905096;29;20036;-72
2022/05/09 00:34:28;;;;;;;7.45;5.00;;;6.20;96.00;;;;;;4904003;29;20036;-73
2022/05/09 00:36:55;;;;;;;11.18;5.03;;;6.20;96.20;;;;;;4905337;29;20429;-72
2022/05/09 00:39:21;;;;;;;14.02;5.07;;;6.20;96.30;;;;;;4903420;29;20038;-72
2022/05/09 00:41:47;;;;;;;7.85;3.47;;;6.20;96.40;;;;;;4903738;29;20059;-73
2022/05/09 00:44:27;;;;;;;4.53;3.05;;;6.10;96.10;;;;;;4903480;29;20493;-73
2022/05/09 00:46:55;;;;;;;10.10;3.65;;;6.00;94.80;;;;;;4904829;29;20101;-72
2022/05/09 00:49:27;;;;;;;12.73;3.95;;;5.80;95.20;;;;;;4902767;29;20512;-72
2022/05/09 00:52:06;;;;;;;7.13;4.25;;;5.80;95.70;;;;;;4909453;29;20036;-72
2022/05/09 00:54:41;;;;;;;10.38;4.68;;;5.70;96.10;;;;;;4895415;29;20039;-72
2022/05/09 00:57:20;;;;;;;6.78;4.18;;;5.60;96.40;;;;;;4906707;29;20110;-72
2022/05/09 00:59:47;;;;;;;10.13;4.95;;;5.60;96.70;;;;;;4909127;29;20099;-72
2022/05/09 01:02:15;;;;;;;8.98;4.32;;;5.50;96.90;;;;;;4907228;29;20207;-72
2022/05/09 01:04:53;;;;;;;12.60;5.18;;;5.50;97.00;;;;;;4907628;29;20123;-72
2022/05/09 01:07:19;;;;;;;7.13;4.28;;;5.50;97.10;;;;;;4909106;29;20570;-72
2022/05/09 01:09:46;;;;;;;9.35;5.15;;;5.50;97.50;;;;;;4893489;29;20060;-72
2022/05/09 01:12:13;;;;;;;9.35;4.55;;;5.50;97.60;;;;;;4901022;29;20040;-72
2022/05/09 01:14:39;;;;;;;7.45;4.20;;;5.40;97.50;;;;;;4895202;29;20592;-72
2022/05/09 01:17:06;;;;;;;13.00;4.82;;;5.40;97.40;;;;;;4905893;29;20039;-72
2022/05/09 01:19:38;;;;;;;17.23;5.53;;;5.30;97.50;;;;;;4908901;29;20563;-72
2022/05/09 01:22:17;;;;;;;13.02;4.65;;;5.30;97.60;;;;;;4907941;29;20060;-72
2022/05/09 01:24:43;;;;;;;8.90;5.15;;;5.30;97.70;;;;;;4907086;29;20036;-74
2022/05/09 01:27:08;;;;;;;7.82;4.75;;;5.30;97.80;;;;;;4922170;29;20055;-74
2022/05/09 01:29:41;;;;;;;7.28;4.50;;;5.20;97.90;;;;;;4908291;29;20552;-74
2022/05/09 01:32:12;;;;;;;9.05;5.13;;;5.20;97.90;;;;;;4896346;29;20076;-74
2022/05/09 01:34:45;;;;;;;8.80;5.10;;;5.10;97.70;;;;;;4906945;29;20054;-75
2022/05/09 01:37:12;;;;;;;7.72;4.10;;;5.10;97.60;;;;;;4905772;29;20032;-72
2022/05/09 01:39:39;;;;;;;6.70;4.85;;;5.00;97.60;;;;;;4909078;29;20118;-74
2022/05/09 01:42:09;;;;;;;8.63;4.70;;;5.00;97.60;;;;;;4904066;29;20740;-74
2022/05/09 01:44:37;;;;;;;10.73;5.13;;;4.90;97.70;;;;;;4907747;29;20155;-74
2022/05/09 01:49:48;;;;;;;11.13;5.25;;;4.90;97.90;;;;;;4907125;29;20085;-74
2022/05/09 01:52:16;;;;;;;11.52;5.43;;;4.90;97.90;;;;;;4896403;29;20036;-74
2022/05/09 01:54:43;;;;;;;10.80;4.88;;;4.90;98.00;;;;;;4907046;29;20040;-74
2022/05/09 01:57:10;;;;;;;11.20;5.05;;;4.90;98.20;;;;;;4906182;29;20084;-73
2022/05/09 01:59:37;;;;;;;9.73;5.22;;;4.90;98.20;;;;;;4906006;29;20035;-74
2022/05/09 02:02:09;;;;;;;10.82;5.13;;;4.90;98.50;;;;;;4907819;29;20396;-74
2022/05/09 02:04:38;;;;;;;13.57;5.13;;;5.00;98.50;;;;;;4905909;29;20191;-73
2022/05/09 02:07:05;;;;;;;13.18;5.82;;;5.10;98.80;;;;;;4923656;29;20519;-74
2022/05/09 02:09:31;;;;;;;12.15;6.15;;;5.20;98.90;;;;;;4919961;29;20036;-74
2022/05/09 02:11:56;;;;;;;12.75;5.57;;;5.20;98.90;;;;;;4907792;29;20050;-74
2022/05/09 02:14:22;;;;;;;12.32;5.65;;;5.30;98.70;;;;;;4907810;29;20099;-74
2022/05/09 02:16:47;;;;;;;13.13;5.85;;;5.20;98.70;;;;;;4908153;29;20491;-74
2022/05/09 02:19:13;;;;;;;11.80;5.55;;;5.10;98.60;;;;;;4908199;29;20531;-73
2022/05/09 02:21:39;;;;;;;8.88;5.75;;;5.10;98.60;;;;;;4902258;29;20047;-74
2022/05/09 02:24:04;;;;;;;9.82;5.05;;;5.00;98.50;;;;;;4905343;29;20043;-73
2022/05/09 02:26:31;;;;;;;11.25;5.55;;;5.00;98.40;;;;;;4906919;29;20099;-72
2022/05/09 02:28:57;;;;;;;12.48;6.20;;;5.00;98.50;;;;;;4908326;29;20046;-74
2022/05/09 02:31:23;;;;;;;13.23;6.18;;;5.00;98.60;;;;;;4904859;29;20032;-72
2022/05/09 02:33:49;;;;;;;13.57;6.60;;;5.00;98.60;;;;;;4907251;29;20041;-73
2022/05/09 02:36:15;;;;;;;13.52;6.22;;;5.00;98.80;;;;;;4907539;29;20103;-74
2022/05/09 02:38:41;;;;;;;14.73;6.25;;;5.10;98.90;;;;;;4902361;29;20116;-74
2022/05/09 02:41:06;;;;;;;9.65;5.53;;;5.10;98.90;;;;;;4898015;29;20044;-74
2022/05/09 02:43:34;;;;;;;12.10;6.07;;;5.00;98.70;;;;;;4906273;29;20035;-74
2022/05/09 02:46:03;;;;;;;8.77;5.38;;;4.90;98.60;;;;;;4905545;29;20103;-74
2022/05/09 02:48:31;;;;;;;9.75;5.20;;;4.90;98.40;;;;;;4907554;29;20093;-74
2022/05/09 02:50:57;;;;;;;11.30;5.65;;;4.80;98.40;;;;;;4907260;29;20419;-72
2022/05/09 02:53:22;;;;;;;13.30;5.90;;;4.70;98.30;;;;;;4891480;29;20062;-72
2022/05/09 02:55:48;;;;;;;7.97;5.72;;;4.70;98.30;;;;;;4906672;29;20519;-74
2022/05/09 02:58:14;;;;;;;13.52;6.03;;;4.70;98.50;;;;;;4915851;29;20491;-72
2022/05/09 03:00:40;;;;;;;10.75;5.97;;;4.70;98.60;;;;;;4906635;29;20039;-74
2022/05/09 03:05:50;;;;;;;11.48;5.78;;;4.70;98.70;;;;;;4900792;29;20051;-74
2022/05/09 03:08:17;;;;;;;9.45;5.65;;;4.70;98.70;;;;;;4906465;29;20040;-74
2022/05/09 03:10:44;;;;;;;9.45;5.13;;;4.60;98.70;;;;;;4905969;29;20115;-74
2022/05/09 03:13:12;;;;;;;16.75;6.82;;;4.60;98.60;;;;;;4905003;29;20032;-74
2022/05/09 03:15:42;;;;;;;12.38;5.88;;;4.50;98.50;;;;;;4904488;29;20072;-74
2022/05/09 03:18:08;;;;;;;14.57;6.15;;;4.50;98.60;;;;;;4906258;29;20087;-74
2022/05/09 03:20:34;;;;;;;8.10;5.47;;;4.60;98.70;;;;;;4905298;29;20040;-74
2022/05/09 03:23:02;;;;;;;8.05;5.20;;;4.60;98.70;;;;;;4905618;29;20035;-74
2022/05/09 03:25:28;;;;;;;8.07;5.32;;;4.60;98.70;;;;;;4906117;29;20040;-73
2022/05/09 03:27:53;;;;;;;11.57;5.55;;;4.50;98.60;;;;;;4906568;29;20127;-72
2022/05/09 03:30:19;;;;;;;8.90;5.47;;;4.40;98.50;;;;;;4909387;29;20036;-74
2022/05/09 03:32:46;;;;;;;11.38;5.28;;;4.40;98.50;;;;;;4905376;29;20052;-74
2022/05/09 03:35:12;;;;;;;13.48;5.53;;;4.40;98.50;;;;;;4906263;29;20032;-74
2022/05/09 03:37:38;;;;;;;11.77;6.00;;;4.30;98.50;;;;;;4906675;29;20043;-74
2022/05/09 03:40:05;;;;;;;9.40;5.20;;;4.30;98.60;;;;;;4905013;29;20132;-74
2022/05/09 03:42:31;;;;;;;7.82;5.15;;;4.30;98.70;;;;;;4905436;29;20333;-74
2022/05/09 03:44:56;;;;;;;13.27;5.50;;;4.30;98.80;;;;;;4903634;29;20404;-75
2022/05/09 03:47:22;;;;;;;6.35;4.68;;;4.20;98.70;;;;;;4896392;29;20826;-75
2022/05/09 03:49:50;;;;;;;8.55;4.65;;;4.20;98.60;;;;;;4905413;29;20043;-75
2022/05/09 03:52:16;;;;;;;8.73;4.35;;;4.10;98.40;;;;;;4897919;29;20112;-73
2022/05/09 03:54:42;;;;;;;8.68;4.95;;;4.10;98.30;;;;;;4891932;29;20123;-73
2022/05/09 03:57:08;;;;;;;6.72;4.72;;;4.00;98.20;;;;;;4906117;29;20036;-75
2022/05/09 03:59:33;;;;;;;10.40;5.22;;;4.00;98.20;;;;;;4904616;29;20568;-75
2022/05/09 04:01:59;;;;;;;11.15;4.63;;;4.00;98.30;;;;;;4902030;29;20046;-75
2022/05/09 04:04:24;;;;;;;8.38;5.38;;;3.90;98.40;;;;;;4894443;29;20048;-75
2022/05/09 04:06:51;;;;;;;16.17;6.00;;;4.00;98.80;;;;;;4891947;29;20063;-75
2022/05/09 04:09:20;;;;;;;8.57;5.57;;;4.00;98.90;;;;;;4903345;29;20028;-75
2022/05/09 04:11:47;;;;;;;10.32;5.07;;;4.10;99.10;;;;;;4904555;29;20063;-74
2022/05/09 04:14:13;;;;;;;8.10;4.72;;;4.10;99.30;;;;;;4904917;29;20028;-72
2022/05/09 04:16:51;;;;;;;8.37;4.83;;;4.20;99.40;;;;;;4903217;29;20044;-75
2022/05/09 04:19:18;;;;;;;7.17;4.03;;;4.30;99.30;;;;;;4905095;29;20039;-75
2022/05/09 04:21:44;;;;;;;7.32;4.43;;;4.20;98.80;;;;;;4904602;29;20099;-74
2022/05/09 04:24:10;;;;;;;9.00;5.70;;;4.10;98.30;;;;;;4906384;29;20040;-75
2022/05/09 04:26:37;;;;;;;9.63;5.00;;;4.20;98.30;;;;;;4905224;29;19926;-74
2022/05/09 04:29:02;;;;;;;;;;;4.20;98.40;;;;;;4906751;29;20243;-75
2022/05/09 04:31:28;;;;;;;11.33;5.30;;;4.20;98.50;;;;;;4904382;29;20409;-75
2022/05/09 04:33:55;;;;;;;7.40;4.85;;;4.20;98.50;;;;;;4907378;29;20035;-74
2022/05/09 04:36:23;;;;;;;;;;;4.20;98.40;;;;;;4895788;29;20067;-75
2022/05/09 04:38:51;;;;;;;;;;;4.20;98.40;;;;;;4904116;29;20248;-75
2022/05/09 04:41:18;;;;;;;;;;;4.20;98.00;;;;;;4907143;29;20445;-74
2022/05/09 04:43:44;;;;;;;10.10;5.07;;;4.20;98.10;;;;;;4907770;29;20064;-74
2022/05/09 04:46:09;;;;;;;;;;;4.30;98.20;;;;;;4907168;29;20036;-75
2022/05/09 04:48:35;;;;;;;11.32;5.60;;;4.30;98.20;;;;;;4907819;29;20455;-75
2022/05/09 04:51:01;;;;;;;9.95;5.78;;;4.30;98.20;;;;;;4907169;29;20119;-75
2022/05/09 04:53:26;;;;;;;9.77;4.93;;;4.30;98.30;;;;;;4909108;29;20036;-75
2022/05/09 04:55:56;;;;;;;10.63;5.07;;;4.40;98.50;;;;;;4902322;29;20032;-75
2022/05/09 04:58:21;;;;;;;11.38;5.07;;;4.40;98.50;;;;;;4903710;29;20043;-75
2022/05/09 05:00:48;;;;;;;9.30;5.60;;;4.40;98.50;;;;;;4905343;29;20024;-75
2022/05/09 05:03:13;;;;;;;;;;;4.40;98.40;;;;;;4908249;29;20092;-75
2022/05/09 05:05:39;;;;;;;;;;;4.50;98.30;;;;;;4907633;29;19923;-75
2022/05/09 05:08:05;;;;;;;;;;;4.50;98.20;;;;;;4908045;29;19929;-75
2022/05/09 05:10:30;;;;;;;;;;;4.50;98.10;;;;;;4905546;29;20434;-75
2022/05/09 05:12:58;;;;;;;;;;;4.50;98.10;;;;;;4905222;29;20355;-75
2022/05/09 05:15:27;;;;;;;;;;;4.60;98.10;;;;;;4905430;29;20410;-75
2022/05/09 05:17:53;;;;;;;;;;;4.70;98.10;;;;;;4907351;29;19922;-75
2022/05/09 05:20:19;;;;;;;;;;;4.70;98.10;;;;;;4905664;29;20030;-75
2022/05/09 05:22:47;;;;;;;;;;;4.80;98.20;;;;;;4904126;29;20360;-75
2022/05/09 05:25:13;;;;;;;;;;;4.90;98.10;;;;;;4900340;29;19922;-75
2022/05/09 05:27:39;;;;;;;;;;;5.00;98.00;;;;;;4891119;29;19927;-75
2022/05/09 05:30:05;;;;;;;;;;;5.00;97.90;;;;;;4904332;29;20433;-75
2022/05/09 05:32:34;;;;;;;;;;;5.10;97.90;;;;;;4905039;29;19930;-75
2022/05/09 05:35:00;;;;;;;;;;;5.20;97.70;;;;;;4903732;29;20187;-75
2022/05/09 05:37:26;;;;;;;;;;;5.30;97.60;;;;;;4902719;29;19962;-75
2022/05/09 05:39:52;;;;;;;11.82;6.93;;;5.40;97.40;;;;;;4905820;29;19994;-75
2022/05/09 05:42:18;;;;;;;;;;;5.50;97.30;;;;;;4906275;29;20369;-75
2022/05/09 05:44:47;;;;;;;;;;;5.60;97.20;;;;;;4904944;29;19919;-75
2022/05/09 05:47:13;;;;;;;;;;;5.70;96.90;;;;;;4906467;29;24077;-75
2022/05/09 05:49:39;;;;;;;;;;;5.80;96.80;;;;;;4905189;29;19926;-75
2022/05/09 05:52:06;;;;;;;;;;;5.90;96.90;;;;;;4905175;29;19919;-75
2022/05/09 05:54:33;;;;;;;;;;;6.00;96.60;;;;;;4906574;29;20303;-75
2022/05/09 05:56:59;;;;;;;;;;;6.10;96.70;;;;;;4908476;29;24061;-75
2022/05/09 05:59:25;;;;;;;;;;;6.20;96.60;;;;;;4905112;29;19930;-75
2022/05/09 06:01:51;;;;;;;;;;;6.40;96.60;;;;;;4902132;29;20318;-75
2022/05/09 06:04:17;;;;;;;;;;;6.60;96.40;;;;;;4904109;29;19950;-75
2022/05/09 06:06:42;;;;;;;;;;;6.80;96.20;;;;;;4901556;29;20379;-72
2022/05/09 06:09:09;;;;;;;;;;;6.90;96.00;;;;;;4904736;29;20009;-75
2022/05/09 06:11:35;;;;;;;;;;;7.00;96.20;;;;;;4903946;29;19923;-75
2022/05/09 06:14:03;;;;;;;;;;;7.20;96.10;;;;;;4905401;29;19914;-75
2022/05/09 06:16:29;;;;;;;;;;;7.30;95.80;;;;;;4906342;29;19930;-75
2022/05/09 06:18:55;;;;;;;;;;;7.50;95.70;;;;;;4904894;29;19915;-75
2022/05/09 06:21:21;;;;;;;;;;;7.60;95.60;;;;;;4903693;29;19926;-75
2022/05/09 06:23:47;;;;;;;;;;;7.80;95.50;;;;;;4906751;29;20037;-74
2022/05/09 06:26:14;;;;;;;;;;;8.00;95.50;;;;;;4905270;29;20005;-74
2022/05/09 06:28:40;;;;;;;;;;;8.30;95.50;;;;;;4899267;29;19958;-74
2022/05/09 06:31:06;;;;;;;;;;;8.50;95.30;;;;;;4901950;29;20367;-75
2022/05/09 06:33:32;;;;;;;;;;;8.70;94.80;;;;;;4905494;29;19911;-74
2022/05/09 06:35:58;;;;;;;;;;;8.90;94.90;;;;;;4904311;29;20274;-75
2022/05/09 06:38:25;;;;;;;;;;;9.10;94.50;;;;;;4906279;29;19922;-74
2022/05/09 06:40:52;;;;;;;;;;;9.40;94.40;;;;;;4902841;29;19911;-72
2022/05/09 06:43:18;;;;;;;12.95;5.70;;;9.70;94.30;;;;;;4905948;29;20056;-74
2022/05/09 06:45:44;;;;;;;13.60;5.80;;;9.90;93.50;;;;;;4904715;29;20567;-74
2022/05/09 06:48:10;;;;;;;14.65;7.15;;;10.10;93.00;;;;;;4904225;29;20052;-74
2022/05/09 06:50:36;;;;;;;;;;;10.40;93.10;;;;;;4900501;29;20099;-74
2022/05/09 06:53:02;;;;;;;;;;;10.60;92.50;;;;;;4903175;29;19915;-72
2022/05/09 06:55:27;;;;;;;;;;;10.80;92.00;;;;;;4903838;29;20018;-72
2022/05/09 06:57:53;;;;;;;;;;;11.00;91.80;;;;;;4904027;29;19990;-72
2022/05/09 07:00:20;;;;;;;;;;;11.30;91.40;;;;;;4901610;29;20002;-72
2022/05/09 07:02:46;;;;;;;;;;;11.60;91.30;;;;;;4897745;29;20128;-73
2022/05/09 07:05:13;;;;;;;;;;;11.90;91.00;;;;;;4903362;29;20359;-73
2022/05/09 07:07:40;;;;;;;;;;;12.10;90.50;;;;;;4899468;29;20385;-73
2022/05/09 07:10:06;;;;;;;;;;;12.30;90.10;;;;;;4901922;29;19963;-73
2022/05/09 07:12:32;;;;;;;;;;;12.50;89.90;;;;;;4903943;29;19915;-73
2022/05/09 07:14:57;;;;;;;;;;;12.80;89.30;;;;;;4900378;29;19919;-73
2022/05/09 07:17:23;;;;;;;;;;;12.90;87.30;;;;;;4899740;29;20331;-73
2022/05/09 07:19:48;;;;;;;;;;;13.10;87.70;;;;;;4897927;29;20416;-73
2022/05/09 07:22:14;;;;;;;15.32;7.28;;;13.30;88.30;;;;;;4900117;29;19915;-73
2022/05/09 07:24:40;;;;;;;15.48;7.00;;;13.40;87.10;;;;;;4899209;29;20031;-74
2022/05/09 07:27:07;;;;;;;15.80;6.25;;;13.60;85.00;;;;;;4890997;29;20068;-74
2022/05/09 07:29:33;;;;;;;13.75;6.20;;;13.70;83.40;;;;;;4893166;29;20534;-73
2022/05/09 07:31:59;;;;;;;15.48;6.95;;;13.90;83.50;;;;;;4896092;29;20179;-74
2022/05/09 07:34:25;;;;;;;18.35;7.07;;;14.00;82.10;;;;;;4891920;29;20507;-73
2022/05/09 07:36:50;;;;;;;15.73;7.38;;;13.80;83.20;;;;;;4893358;29;20036;-73
2022/05/09 07:39:16;;;;;;;17.45;7.45;;;14.00;83.80;;;;;;4903962;29;20107;-73
2022/05/09 07:41:42;;;;;;;16.48;7.25;;;14.00;79.40;;;;;;4904410;29;20040;-72
2022/05/09 07:44:08;;;;;;;16.58;7.40;;;14.40;82.40;;;;;;4903076;29;20043;-73
2022/05/09 07:46:34;;;;;;;16.10;6.53;;;15.50;79.10;;;;;;4894428;29;20044;-72
2022/05/09 07:49:00;;;;;;;15.40;7.43;;;17.30;74.20;;;;;;4891324;29;20119;-73
2022/05/09 07:51:26;;;;;;;15.85;6.82;;;19.90;64.60;;;;;;4894734;29;20038;-74
2022/05/09 07:53:52;;;;;;;9.18;4.60;;;22.40;57.50;;;;;;4895003;29;20567;-74
2022/05/09 07:56:17;;;;;;;12.80;5.38;;;25.10;49.90;;;;;;4903617;29;20036;-76
2022/05/09 07:58:43;;;;;;;10.70;4.28;;;26.80;45.60;;;;;;4901974;29;20032;-75
2022/05/09 08:01:09;;;;;;;11.55;4.93;;;28.50;42.00;;;;;;4900876;29;20032;-76
2022/05/09 08:03:38;;;;;;;10.02;5.13;;;29.00;40.10;;;;;;4889156;29;20056;-76
2022/05/09 08:06:05;;;;;;;13.98;4.78;;;29.70;37.00;;;;;;4900602;29;20056;-76
2022/05/09 08:08:35;;;;;;;12.20;4.95;;;29.70;37.20;;;;;;4899882;29;20068;-75
2022/05/09 08:11:02;;;;;;;10.17;5.57;;;30.00;36.00;;;;;;4896306;29;20127;-73
2022/05/09 08:13:30;;;;;;;10.52;4.60;;;30.50;36.90;;;;;;4894405;29;20295;-76
2022/05/09 08:15:56;;;;;;;11.15;5.05;;;31.30;36.20;;;;;;4896746;29;20183;-74
2022/05/09 08:18:24;;;;;;;11.27;4.88;;;31.90;34.00;;;;;;4905368;29;20320;-74
2022/05/09 08:20:50;;;;;;;11.63;4.57;;;30.90;35.40;;;;;;4906356;29;20245;-74
2022/05/09 08:23:18;;;;;;;12.60;5.70;;;32.10;35.00;;;;;;4895567;29;20024;-74
2022/05/09 08:25:49;;;;;;;8.38;4.85;;;31.30;33.30;;;;;;4890467;29;20031;-74
2022/05/09 08:28:16;;;;;;;16.30;6.43;;;31.90;34.40;;;;;;4895159;29;20486;-74
2022/05/09 08:30:44;;;;;;;11.00;5.38;;;31.50;32.00;;;;;;4892807;29;20036;-74
2022/05/09 08:33:15;;;;;;;18.67;5.50;;;32.20;34.10;;;;;;4557972;28;10000471;-74
2022/05/09 08:35:45;;;;;;;11.70;5.00;;;30.60;32.60;;;;;;4893728;29;20032;-75
2022/05/09 08:38:12;;;;;;;13.43;4.72;;;32.20;36.10;;;;;;4894013;29;20608;-74
2022/05/09 08:40:45;;;;;;;14.70;5.65;;;31.80;36.10;;;;;;4897921;29;20115;-75
2022/05/09 08:43:45;;;;;;;14.18;5.57;;;32.30;30.50;;;;;;4892093;29;20036;-73
2022/05/09 08:46:38;;;;;;;12.35;5.85;;;31.30;32.70;;;;;;4901423;29;20084;-73
2022/05/09 08:49:31;;;;;;;9.88;4.70;;;32.20;33.00;;;;;;4897536;29;21635;-74
2022/05/09 08:52:03;;;;;;;10.63;4.53;;;32.50;31.50;;;;;;4893895;29;20130;-74
2022/05/09 08:54:29;;;;;;;11.50;4.35;;;32.20;34.90;;;;;;4900380;29;20052;-73
2022/05/09 08:57:08;;;;;;;12.77;4.90;;;33.00;35.30;;;;;;4902334;29;20167;-75
2022/05/09 08:59:40;;;;;;;12.05;4.38;;;32.00;32.80;;;;;;4898456;29;20087;-73
2022/05/09 09:02:32;;;;;;;8.13;3.65;;;30.60;33.00;;;;;;4893401;29;20028;-74
2022/05/09 09:04:59;;;;;;;11.70;4.60;;;31.50;36.90;;;;;;4900093;29;20067;-74
2022/05/09 09:07:35;;;;;;;10.40;4.25;;;31.30;31.50;;;;;;4900245;29;21722;-74
2022/05/09 09:10:06;;;;;;;10.77;3.90;;;31.70;35.90;;;;;;4895467;29;20572;-73
2022/05/09 09:13:08;;;;;;;11.68;4.45;;;32.30;35.50;;;;;;4903794;29;20039;-74
2022/05/09 09:15:55;;;;;;;13.10;4.20;;;31.70;31.20;;;;;;4907195;29;20042;-73
2022/05/09 09:18:31;;;;;;;11.38;4.60;;;31.90;33.20;;;;;;4905834;29;20035;-73
2022/05/09 09:21:01;;;;;;;10.88;4.30;;;31.60;31.00;;;;;;4901509;29;20035;-73
2022/05/09 09:23:42;;;;;;;11.35;3.80;;;31.00;33.90;;;;;;4898028;29;20036;-73
2022/05/09 09:26:33;;;;;;;7.53;3.30;;;31.80;32.50;;;;;;4901613;29;20040;-72
2022/05/09 09:29:13;;;;;;;7.97;3.35;;;30.50;30.40;;;;;;4915962;29;20535;-74
2022/05/09 09:31:44;;;;;;;9.77;2.92;;;30.90;33.20;;;;;;4901501;29;20036;-75
2022/05/09 09:34:29;;;;;;;9.00;3.35;;;31.00;32.50;;;;;;4900244;29;20055;-73
2022/05/09 09:37:05;;;;;;;10.32;3.58;;;30.70;29.10;;;;;;4901478;29;20039;-75
2022/05/09 09:39:31;;;;;;;6.93;3.53;;;31.00;32.80;;;;;;4896540;29;20107;-73
2022/05/09 09:41:56;;;;;;;9.30;3.17;;;30.60;29.70;;;;;;4896890;29;20592;-76
2022/05/09 09:44:25;;;;;;;8.18;3.30;;;31.40;32.80;;;;;;4897765;29;20119;-75
2022/05/09 09:47:21;;;;;;;11.30;3.63;;;31.40;34.60;;;;;;4895958;29;20092;-74
2022/05/09 09:50:07;;;;;;;7.45;3.80;;;31.00;32.00;;;;;;4909721;29;20574;-75
2022/05/09 09:52:42;;;;;;;9.15;3.90;;;31.30;30.10;;;;;;4898870;29;20111;-75
2022/05/09 09:55:22;;;;;;;7.78;3.60;;;30.80;29.80;;;;;;4899515;29;20032;-77
2022/05/09 09:57:48;;;;;;;7.97;3.63;;;31.50;32.30;;;;;;4901056;29;20035;-74
2022/05/09 10:00:19;;;;;;;10.25;3.88;;;31.00;33.60;;;;;;4897876;29;20119;-76
2022/05/09 10:02:46;;;;;;;11.77;3.92;;;31.00;30.60;;;;;;4896648;29;20292;-77
2022/05/09 10:05:16;;;;;;;10.55;3.92;;;30.80;30.70;;;;;;4894911;29;21482;-76
2022/05/09 10:07:44;;;;;;;9.30;4.03;;;31.00;32.10;;;;;;4895126;29;20514;-74
2022/05/09 10:10:16;;;;;;;11.05;3.90;;;30.50;30.70;;;;;;4896308;29;20032;-76
2022/05/09 10:12:47;;;;;;;13.40;4.45;;;30.30;34.90;;;;;;4900558;29;20036;-77
2022/05/09 10:15:21;;;;;;;15.02;3.80;;;29.60;34.30;;;;;;4908366;29;20032;-74
2022/05/09 10:17:47;;;;;;;8.75;4.30;;;29.40;37.90;;;;;;4898876;29;20502;-74
2022/05/09 10:20:24;;;;;;;10.07;4.00;;;29.70;33.50;;;;;;4898924;29;20055;-75
2022/05/09 10:25:37;;;;;;;9.77;3.65;;;30.70;35.00;;;;;;4918941;29;20797;-76
2022/05/09 10:28:20;;;;;;;9.70;4.00;;;30.70;33.50;;;;;;4907223;29;20047;-73
2022/05/09 10:30:49;;;;;;;9.07;3.47;;;30.50;33.50;;;;;;4907315;29;20036;-74
2022/05/09 10:33:49;;;;;;;10.57;3.40;;;31.00;37.10;;;;;;4879286;29;20040;-73
2022/05/09 10:36:20;;;;;;;8.18;3.85;;;30.80;35.30;;;;;;4903516;29;20506;-76
2022/05/09 10:39:08;;;;;;;9.07;4.20;;;30.00;35.20;;;;;;4897278;29;20551;-74
2022/05/09 10:41:46;;;;;;;8.35;4.32;;;30.10;35.40;;;;;;4898874;29;20280;-73
2022/05/09 10:44:40;;;;;;;8.75;4.57;;;29.60;33.00;;;;;;4913795;29;20043;-75
2022/05/09 10:47:15;;;;;;;10.05;3.75;;;28.70;34.60;;;;;;4900032;29;20502;-76
2022/05/09 10:50:29;;;;;;;7.30;3.75;;;28.40;40.50;;;;;;4901162;29;20028;-73
2022/05/09 10:53:06;;;;;;;9.20;5.22;;;29.00;36.10;;;;;;4842723;29;20119;-72
2022/05/09 10:55:57;;;;;;;7.78;3.83;;;28.50;34.30;;;;;;4919890;29;20063;-72
2022/05/09 10:58:59;;;;;;;9.52;4.05;;;27.80;39.40;;;;;;4904348;29;20047;-72
2022/05/09 11:01:27;;;;;;;;;;;27.50;38.70;;;;;;4907312;29;20059;-74
2022/05/09 11:03:54;;;;;;;9.68;3.90;;;26.90;38.60;;;;;;4901945;29;19962;-73
2022/05/09 11:06:38;;;;;;;8.07;4.53;;;27.60;45.70;;;;;;4897508;29;20135;-74
2022/05/09 11:09:21;;;;;;;8.75;4.63;;;28.40;41.00;;;;;;4905163;29;20139;-73
2022/05/09 11:12:19;;;;;;;8.02;4.05;;;28.20;35.20;;;;;;4897202;29;20039;-75
2022/05/09 11:15:06;;;;;;;8.13;4.35;;;28.90;39.40;;;;;;4869247;29;20504;-74
2022/05/09 11:17:56;;;;;;;9.30;4.32;;;28.90;40.60;;;;;;4899649;29;20040;-77
2022/05/09 11:20:30;;;;;;;8.52;4.50;;;28.50;42.40;;;;;;4899623;29;20063;-77
2022/05/09 11:23:19;;;;;;;9.77;4.88;;;28.50;39.70;;;;;;4897468;29;20032;-77
2022/05/09 11:25:51;;;;;;;7.05;4.38;;;28.40;39.10;;;;;;4898596;29;20036;-76
2022/05/09 11:28:43;;;;;;;8.52;4.68;;;28.20;36.80;;;;;;4916070;29;20574;-77
2022/05/09 11:31:27;;;;;;;7.70;4.63;;;27.80;39.10;;;;;;4923946;29;20035;-74
2022/05/09 11:34:11;;;;;;;12.55;5.15;;;27.20;39.40;;;;;;4894066;29;20111;-77
2022/05/09 11:37:04;;;;;;;8.40;4.05;;;26.20;42.90;;;;;;4901193;29;20291;-74
2022/05/09 11:40:09;;;;;;;8.25;5.50;;;26.10;44.10;;;;;;4900883;29;20043;-73
2022/05/09 11:46:05;;;;;;;8.32;5.63;;;25.10;46.90;;;;;;4891452;29;20054;-77
2022/05/09 11:48:59;;;;;;;8.75;5.07;;;24.20;44.70;;;;;;4887713;29;20449;-79
2022/05/09 11:52:01;;;;;;;10.95;5.72;;;24.20;49.30;;;;;;4898299;29;20039;-78
2022/05/09 11:54:38;;;;;;;9.30;5.30;;;24.50;49.50;;;;;;4885184;29;20063;-78
2022/05/09 11:57:22;;;;;;;10.43;5.18;;;24.60;46.60;;;;;;4883465;29;20091;-75
2022/05/09 12:00:00;;;;;;;9.13;5.18;;;24.70;47.70;;;;;;4895221;29;20044;-78
2022/05/09 12:02:47;;;;;;;9.77;5.80;;;24.70;48.80;;;;;;4898919;29;20027;-79
2022/05/09 12:05:25;;;;;;;11.90;6.05;;;24.90;48.50;;;;;;4902523;29;20048;-82
2022/05/09 12:07:55;;;;;;;10.07;6.10;;;24.30;44.80;;;;;;4887379;29;20044;-81
2022/05/09 12:10:28;;;;;;;8.48;5.88;;;24.30;47.10;;;;;;4902358;29;20532;-78
2022/05/09 12:13:00;;;;;;;12.68;5.90;;;24.20;46.00;;;;;;4884480;29;20042;-73
2022/05/09 12:15:29;;;;;;;10.65;5.47;;;24.60;46.20;;;;;;4890735;29;20032;-73
2022/05/09 12:17:54;;;;;;;7.68;5.78;;;25.10;45.10;;;;;;4890072;29;20079;-74
2022/05/09 12:20:29;;;;;;;10.27;5.93;;;25.00;47.90;;;;;;4888422;29;20119;-74
2022/05/09 12:22:56;;;;;;;10.15;5.70;;;25.20;43.80;;;;;;4888835;29;20586;-74
2022/05/09 12:25:34;;;;;;;9.90;5.45;;;25.00;47.50;;;;;;4889810;29;20391;-76
2022/05/09 12:28:05;;;;;;;9.93;6.13;;;25.10;48.40;;;;;;4895161;29;20051;-74
2022/05/09 12:30:54;;;;;;;9.25;6.75;;;24.70;44.70;;;;;;4913582;29;20035;-76
2022/05/09 12:33:51;;;;;;;10.55;6.90;;;24.40;46.50;;;;;;4900322;29;20559;-76
2022/05/09 12:36:19;;;;;;;7.75;5.90;;;23.90;45.70;;;;;;4878491;29;20044;-75
2022/05/09 12:38:50;;;;;;;9.30;5.72;;;23.70;46.60;;;;;;4898284;29;20028;-75
2022/05/09 12:41:17;;;;;;;8.85;5.40;;;24.20;51.70;;;;;;4898874;29;20038;-75
2022/05/09 12:43:52;;;;;;;9.95;5.60;;;24.60;48.20;;;;;;4896158;29;20036;-75
2022/05/09 12:46:40;;;;;;;8.75;6.20;;;24.70;50.10;;;;;;4906260;29;20039;-75
2022/05/09 12:49:08;;;;;;;12.32;6.80;;;25.10;48.20;;;;;;4905399;29;20036;-73
2022/05/09 12:51:47;;;;;;;14.38;7.75;;;24.60;47.20;;;;;;4898770;29;20036;-74
2022/05/09 12:54:16;;;;;;;9.85;6.95;;;24.20;46.30;;;;;;4899562;29;20501;-74
2022/05/09 12:56:52;;;;;;;13.00;7.82;;;24.00;46.60;;;;;;4900847;29;20060;-73
2022/05/09 12:59:18;;;;;;;13.68;7.60;;;23.60;46.90;;;;;;4899966;29;20103;-74
2022/05/09 13:01:58;;;;;;;11.27;6.68;;;23.50;49.60;;;;;;4902216;29;20119;-76
2022/05/09 13:04:32;;;;;;;12.27;8.07;;;23.40;51.30;;;;;;4888644;29;20103;-74
2022/05/09 13:07:06;;;;;;;10.25;7.43;;;23.80;47.60;;;;;;4903844;29;20044;-74
2022/05/09 13:09:35;;;;;;;8.70;6.72;;;23.60;50.20;;;;;;4901576;29;20799;-74
2022/05/09 13:12:05;;;;;;;10.68;6.75;;;23.90;49.80;;;;;;4904499;29;20028;-75
2022/05/09 13:14:46;;;;;;;10.10;7.10;;;23.90;51.30;;;;;;4905718;29;20032;-74
2022/05/09 13:17:21;;;;;;;12.07;5.72;;;23.60;48.60;;;;;;4900535;29;20092;-74
2022/05/09 13:19:52;;;;;;;14.02;6.95;;;23.50;52.60;;;;;;4894771;29;20060;-75
2022/05/09 13:22:28;;;;;;;12.00;6.10;;;23.30;51.60;;;;;;4901868;29;20120;-76
2022/05/09 13:24:55;;;;;;;10.43;6.35;;;23.40;53.40;;;;;;4911846;29;20083;-72
2022/05/09 13:27:23;;;;;;;10.00;7.05;;;23.50;51.20;;;;;;4897696;29;20135;-72
2022/05/09 13:29:51;;;;;;;13.00;6.90;;;23.60;51.20;;;;;;4901077;29;20063;-75
2022/05/09 13:32:29;;;;;;;11.63;5.40;;;23.70;47.50;;;;;;4900238;29;20115;-74